Time;durP1;ratioP1;P1;durP2;ratioP2;P2;SDS_P1;SDS_P2;PMS_P1;PMS_P2;Temp;Humidity;BMP_temperature;BMP_pressure;BME280_temperature;BME280_humidity;BME280_pressure;Samples;Min_cycle;Max_cycle;Signal;HPM_P1;HPM_P2
2021/04/23 00:00:56;;;;;;;;;;;;;;;26.56;27.61;100972.88;5098255;28;866;-27
2021/04/23 00:03:28;;;;;;;;;;;;;;;26.54;27.75;100973.06;5098074;28;998;-23
2021/04/23 00:06:14;;;;;;;;;;;;;;;26.63;27.74;100973.84;5098236;28;1961;-24
2021/04/23 00:08:43;;;;;;;;;;;;;;;26.56;27.94;100971.00;5090861;28;1981;-40
2021/04/23 00:11:08;;;;;;;;;;;;;;;26.59;27.91;100969.84;5098727;28;788;-38
2021/04/23 00:13:34;;;;;;;;;;;;;;;26.59;27.74;100967.94;5117198;28;1277;-22
2021/04/23 00:15:59;;;;;;;;;;;;;;;26.57;27.94;100967.31;5118734;28;857;-39
2021/04/23 00:18:24;;;;;;;;;;;;;;;26.68;27.96;100971.47;5098106;28;996;-38
2021/04/23 00:20:50;;;;;;;;;;;;;;;26.64;27.82;100972.84;5098136;28;786;-26
2021/04/23 00:23:16;;;;;;;;;;;;;;;26.64;27.78;100967.44;5098155;28;798;-23
2021/04/23 00:25:41;;;;;;;;;;;;;;;26.62;28.01;100961.38;5098160;28;1906;-24
2021/04/23 00:28:10;;;;;;;;;;;;;;;26.57;27.86;100955.66;5098016;28;739;-24
2021/04/23 00:30:38;;;;;;;;;;;;;;;26.64;27.86;100962.88;5098099;28;810;-37
2021/04/23 00:33:03;;;;;;;;;;;;;;;26.63;28.10;100957.66;5097505;28;1112;-39
2021/04/23 00:35:30;;;;;;;;;;;;;;;26.70;27.96;100955.94;5098144;28;715;-38
2021/04/23 00:37:56;;;;;;;;;;;;;;;26.58;28.11;100960.03;5098068;28;783;-22
2021/04/23 00:40:22;;;;;;;;;;;;;;;26.60;28.21;100958.00;5097987;28;794;-25
2021/04/23 00:42:47;;;;;;;;;;;;;;;26.63;27.94;100961.22;5097571;28;751;-38
2021/04/23 00:45:13;;;;;;;;;;;;;;;26.62;28.15;100958.69;5097375;28;1979;-29
2021/04/23 00:47:39;;;;;;;;;;;;;;;26.65;27.76;100959.19;5096232;28;1581;-38
2021/04/23 00:50:04;;;;;;;;;;;;;;;26.65;28.16;100953.78;5097353;28;723;-24
2021/04/23 00:52:30;;;;;;;;;;;;;;;26.57;28.17;100950.28;5097643;28;744;-37
2021/04/23 00:54:55;;;;;;;;;;;;;;;26.60;28.28;100955.31;5097574;28;772;-22
2021/04/23 00:57:20;;;;;;;;;;;;;;;26.64;28.18;100949.38;5097186;28;847;-34
2021/04/23 00:59:45;;;;;;;;;;;;;;;26.66;28.05;100943.81;5097606;28;732;-22
2021/04/23 01:02:14;;;;;;;;;;;;;;;26.58;28.21;100944.69;5097072;28;942;-23
2021/04/23 01:04:40;;;;;;;;;;;;;;;26.61;28.25;100935.44;5097265;28;1981;-38
2021/04/23 01:07:05;;;;;;;;;;;;;;;26.64;28.28;100945.88;5097764;28;770;-38
2021/04/23 01:09:30;;;;;;;;;;;;;;;26.62;28.11;100940.66;5097128;28;787;-31
2021/04/23 01:11:57;;;;;;;;;;;;;;;26.59;28.24;100937.44;5103685;28;1127;-37
2021/04/23 01:14:22;;;;;;;;;;;;;;;26.57;28.48;100934.09;5117575;28;802;-24
2021/04/23 01:16:47;;;;;;;;;;;;;;;26.62;28.42;100943.34;5110187;27;938;-37
2021/04/23 01:19:14;;;;;;;;;;;;;;;26.69;28.30;100938.09;5097280;28;850;-25
2021/04/23 01:21:39;;;;;;;;;;;;;;;26.63;28.26;100942.31;5097183;28;740;-37
2021/04/23 01:24:05;;;;;;;;;;;;;;;26.67;28.57;100942.81;5096881;28;779;-24
2021/04/23 01:26:34;;;;;;;;;;;;;;;26.63;28.30;100934.22;5097033;28;1898;-27
2021/04/23 01:29:00;;;;;;;;;;;;;;;26.70;28.40;100930.81;5097003;28;775;-36
2021/04/23 01:31:26;;;;;;;;;;;;;;;26.71;28.36;100930.63;5095960;28;950;-37
2021/04/23 01:33:54;;;;;;;;;;;;;;;26.70;28.17;100928.97;5096894;28;763;-25
2021/04/23 01:36:19;;;;;;;;;;;;;;;26.70;28.31;100925.41;5096881;28;807;-35
2021/04/23 01:38:45;;;;;;;;;;;;;;;26.72;28.49;100928.78;5096804;28;850;-38
2021/04/23 01:41:10;;;;;;;;;;;;;;;26.74;28.20;100924.06;5096533;28;826;-29
2021/04/23 01:43:36;;;;;;;;;;;;;;;26.66;28.61;100930.31;5096536;28;1015;-38
2021/04/23 01:46:01;;;;;;;;;;;;;;;26.66;28.25;100927.63;5096531;28;1968;-36
2021/04/23 01:48:27;;;;;;;;;;;;;;;26.65;28.37;100929.50;5095465;28;941;-36
2021/04/23 01:50:52;;;;;;;;;;;;;;;26.64;28.40;100937.78;5096809;28;771;-24
2021/04/23 01:53:17;;;;;;;;;;;;;;;26.66;28.44;100930.31;5096708;28;834;-24
2021/04/23 01:55:43;;;;;;;;;;;;;;;26.65;28.35;100943.00;5096759;28;803;-22
2021/04/23 01:58:08;;;;;;;;;;;;;;;26.64;28.67;100937.78;5096728;28;844;-24
2021/04/23 02:00:34;;;;;;;;;;;;;;;26.68;28.57;100936.38;5096678;28;854;-39
2021/04/23 02:03:00;;;;;;;;;;;;;;;26.61;28.74;100935.44;5096255;28;942;-36
2021/04/23 02:05:25;;;;;;;;;;;;;;;26.62;28.72;100950.59;5096343;28;1902;-39
2021/04/23 02:07:51;;;;;;;;;;;;;;;26.61;28.89;100940.81;5096677;28;759;-23
2021/04/23 02:10:18;;;;;;;;;;;;;;;26.60;28.79;100942.66;5096513;28;771;-37
2021/04/23 02:12:43;;;;;;;;;;;;;;;26.59;28.71;100932.88;5109426;28;1174;-22
2021/04/23 02:15:10;;;;;;;;;;;;;;;26.61;28.75;100927.34;5117296;28;813;-22
2021/04/23 02:17:35;;;;;;;;;;;;;;;26.62;28.66;100929.00;5102822;28;1004;-40
2021/04/23 02:20:00;;;;;;;;;;;;;;;26.65;28.89;100920.56;5096604;28;751;-30
2021/04/23 02:22:26;;;;;;;;;;;;;;;26.62;28.72;100926.31;5096446;28;743;-25
2021/04/23 02:24:51;;;;;;;;;;;;;;;26.70;28.72;100928.13;5096547;28;1956;-23
2021/04/23 02:27:16;;;;;;;;;;;;;;;26.63;28.73;100931.53;5096460;28;759;-35
2021/04/23 02:29:41;;;;;;;;;;;;;;;26.69;28.76;100921.06;5096421;28;771;-26
2021/04/23 02:32:07;;;;;;;;;;;;;;;26.61;28.69;100922.75;5095783;28;998;-37
2021/04/23 02:34:32;;;;;;;;;;;;;;;26.73;28.76;100928.63;5096252;28;779;-35
2021/04/23 02:36:57;;;;;;;;;;;;;;;26.75;28.78;100928.44;5096352;28;788;-38
2021/04/23 02:39:23;;;;;;;;;;;;;;;26.75;28.67;100931.13;5096120;28;874;-23
2021/04/23 02:41:49;;;;;;;;;;;;;;;26.70;28.80;100931.66;5096369;28;751;-23
2021/04/23 02:44:15;;;;;;;;;;;;;;;26.73;28.92;100928.63;5097627;28;1075;-21
2021/04/23 02:46:40;;;;;;;;;;;;;;;26.72;29.04;100932.34;5098377;28;1913;-37
2021/04/23 02:49:05;;;;;;;;;;;;;;;26.65;29.09;100931.34;5100099;28;756;-38
2021/04/23 02:51:31;;;;;;;;;;;;;;;26.71;29.10;100929.81;5100068;28;823;-38
2021/04/23 02:53:57;;;;;;;;;;;;;;;26.68;28.82;100933.69;5099696;28;890;-33
2021/04/23 02:56:22;;;;;;;;;;;;;;;26.71;29.04;100927.94;5099968;28;878;-24
2021/04/23 02:58:48;;;;;;;;;;;;;;;26.73;28.96;100933.16;5100231;28;778;-24
2021/04/23 03:01:17;;;;;;;;;;;;;;;26.72;28.90;100928.78;5099185;28;954;-24
2021/04/23 03:03:42;;;;;;;;;;;;;;;25.87;27.70;100932.72;5079413;28;748;-23
2021/04/23 03:06:07;;;;;;;;;;;;;;;25.39;26.64;100930.66;5079485;28;1910;-25
2021/04/23 03:08:33;;;;;;;;;;;;;;;24.88;27.31;100928.84;5079162;28;783;-41
2021/04/23 03:11:00;;;;;;;;;;;;;;;24.21;27.95;100933.06;5079459;28;766;-23
2021/04/23 03:13:26;;;;;;;;;;;;;;;23.98;28.25;100933.56;5116613;28;1182;-26
2021/04/23 03:15:51;;;;;;;;;;;;;;;23.72;28.49;100929.84;5119819;28;839;-27
2021/04/23 03:18:17;;;;;;;;;;;;;;;23.60;28.70;100937.34;5100256;28;942;-24
2021/04/23 03:20:43;;;;;;;;;;;;;;;23.29;29.36;100936.84;5099090;28;854;-23
2021/04/23 03:23:08;;;;;;;;;;;;;;;23.10;29.61;100941.34;5099515;28;779;-23
2021/04/23 03:25:33;;;;;;;;;;;;;;;22.70;30.31;100941.56;5099325;28;1969;-42
2021/04/23 03:27:59;;;;;;;;;;;;;;;22.69;30.52;100947.91;5099017;28;1403;-21
2021/04/23 03:30:27;;;;;;;;;;;;;;;22.45;30.53;100945.72;5099282;28;786;-21
2021/04/23 03:32:52;;;;;;;;;;;;;;;22.72;29.98;100949.47;5098937;28;950;-23
2021/04/23 03:35:18;;;;;;;;;;;;;;;22.18;30.66;100948.19;5099376;28;747;-42
2021/04/23 03:37:43;;;;;;;;;;;;;;;20.81;33.06;100953.25;5099024;28;795;-23
2021/04/23 03:40:09;;;;;;;;;;;;;;;20.19;34.09;100948.75;5099141;28;895;-24
2021/04/23 03:42:35;;;;;;;;;;;;;;;19.81;34.67;100945.66;5098574;28;822;-23
2021/04/23 03:45:00;;;;;;;;;;;;;;;19.62;34.87;100949.84;5098767;28;1992;-41
2021/04/23 03:47:26;;;;;;;;;;;;;;;19.57;35.33;100950.25;5097387;28;1617;-37
2021/04/23 03:49:51;;;;;;;;;;;;;;;20.46;33.69;100944.69;5099062;28;791;-24
2021/04/23 03:52:17;;;;;;;;;;;;;;;20.95;32.21;100941.38;5098695;28;794;-21
2021/04/23 03:54:42;;;;;;;;;;;;;;;21.44;31.48;100937.94;5097934;28;827;-23
2021/04/23 03:57:08;;;;;;;;;;;;;;;21.96;30.58;100936.81;5098134;28;751;-22
2021/04/23 03:59:33;;;;;;;;;;;;;;;22.23;30.29;100943.25;5098830;28;746;-43
2021/04/23 04:01:58;;;;;;;;;;;;;;;22.37;29.99;100941.09;5098256;28;962;-24
2021/04/23 04:04:24;;;;;;;;;;;;;;;22.55;29.99;100948.38;5098302;28;758;-25
2021/04/23 04:06:49;;;;;;;;;;;;;;;23.14;29.19;100947.25;5098828;28;1973;-24
2021/04/23 04:09:14;;;;;;;;;;;;;;;24.92;27.00;100949.06;5098593;28;806;-25
2021/04/23 04:11:40;;;;;;;;;;;;;;;24.76;27.56;100946.28;5102093;28;1150;-38
2021/04/23 04:14:05;;;;;;;;;;;;;;;24.62;27.39;100950.44;5118797;28;846;-30
2021/04/23 04:16:30;;;;;;;;;;;;;;;24.38;28.05;100952.84;5113334;28;882;-41
2021/04/23 04:18:55;;;;;;;;;;;;;;;24.21;28.44;100951.88;5098030;28;829;-41
2021/04/23 04:21:21;;;;;;;;;;;;;;;24.52;28.21;100946.03;5098117;28;799;-42
2021/04/23 04:23:46;;;;;;;;;;;;;;;24.82;27.76;100945.66;5097735;28;835;-44
2021/04/23 04:26:11;;;;;;;;;;;;;;;25.13;27.36;100950.47;5098362;28;2031;-24
2021/04/23 04:28:37;;;;;;;;;;;;;;;25.15;27.42;100950.31;5098220;28;743;-25
2021/04/23 04:31:03;;;;;;;;;;;;;;;25.37;27.33;100948.00;5097658;28;818;-22
2021/04/23 04:33:28;;;;;;;;;;;;;;;25.49;27.38;100953.91;5097386;28;989;-40
2021/04/23 04:35:53;;;;;;;;;;;;;;;25.82;27.08;100953.09;5097966;28;732;-22
2021/04/23 04:38:18;;;;;;;;;;;;;;;26.08;26.67;100954.72;5094283;28;1323;-22
2021/04/23 04:40:44;;;;;;;;;;;;;;;26.16;26.74;100968.19;5097650;28;859;-41
2021/04/23 04:43:10;;;;;;;;;;;;;;;26.32;26.67;100961.97;5097429;28;918;-30
2021/04/23 04:45:35;;;;;;;;;;;;;;;26.33;26.73;100954.72;5095951;28;1905;-42
2021/04/23 04:48:01;;;;;;;;;;;;;;;26.48;26.15;100953.00;5095570;28;828;-36
2021/04/23 04:50:30;;;;;;;;;;;;;;;26.62;26.44;100954.13;5097693;28;808;-40
2021/04/23 04:52:55;;;;;;;;;;;;;;;26.15;27.19;100963.84;5097411;28;799;-24
2021/04/23 04:55:21;;;;;;;;;;;;;;;26.21;27.18;100965.84;5097687;28;771;-37
2021/04/23 04:57:47;;;;;;;;;;;;;;;26.43;26.85;100949.97;5097368;28;680;-41
2021/04/23 05:00:12;;;;;;;;;;;;;;;26.44;26.90;100940.88;5096645;28;783;-22
2021/04/23 05:02:37;;;;;;;;;;;;;;;26.70;26.90;100941.59;5096790;28;1001;-22
2021/04/23 05:05:03;;;;;;;;;;;;;;;26.74;26.81;100929.47;5097122;28;1897;-22
2021/04/23 05:07:29;;;;;;;;;;;;;;;26.72;26.71;100939.59;5095757;28;847;-24
2021/04/23 05:09:54;;;;;;;;;;;;;;;26.62;27.04;100934.41;5097098;28;823;-29
2021/04/23 05:12:19;;;;;;;;;;;;;;;26.65;26.95;100934.03;5106898;28;1197;-30
2021/04/23 05:14:44;;;;;;;;;;;;;;;26.84;26.81;100930.06;5117543;28;820;-24
2021/04/23 05:17:10;;;;;;;;;;;;;;;27.02;26.63;100937.94;5107506;28;1000;-38
2021/04/23 05:19:35;;;;;;;;;;;;;;;27.03;26.61;100946.88;5096715;28;835;-21
2021/04/23 05:22:00;;;;;;;;;;;;;;;27.11;26.46;100938.72;5097162;28;759;-38
2021/04/23 05:24:26;;;;;;;;;;;;;;;27.11;26.68;100943.31;5097198;28;854;-23
2021/04/23 05:26:51;;;;;;;;;;;;;;;27.11;26.37;100940.59;5096880;28;1910;-23
2021/04/23 05:29:16;;;;;;;;;;;;;;;26.80;27.14;100934.16;5097070;28;917;-41
2021/04/23 05:31:41;;;;;;;;;;;;;;;27.04;26.64;100934.22;5096691;28;938;-22
2021/04/23 05:34:07;;;;;;;;;;;;;;;27.24;26.43;100937.31;5096467;28;816;-22
2021/04/23 05:36:32;;;;;;;;;;;;;;;27.22;26.75;100937.50;5097136;28;752;-27
2021/04/23 05:38:57;;;;;;;;;;;;;;;27.43;26.31;100935.97;5096859;28;755;-41
2021/04/23 05:41:22;;;;;;;;;;;;;;;27.24;26.74;100932.72;5096812;28;851;-24
2021/04/23 05:43:48;;;;;;;;;;;;;;;27.37;26.13;100934.00;5096495;28;1127;-31
2021/04/23 05:46:17;;;;;;;;;;;;;;;27.02;26.93;100939.81;5095097;28;1963;-23
2021/04/23 05:48:42;;;;;;;;;;;;;;;27.30;26.62;100927.63;5096366;28;914;-42
2021/04/23 05:51:08;;;;;;;;;;;;;;;26.93;27.26;100941.66;5096790;28;783;-41
2021/04/23 05:53:33;;;;;;;;;;;;;;;26.71;27.35;100937.91;5096522;28;770;-25
2021/04/23 05:55:58;;;;;;;;;;;;;;;26.93;27.34;100938.97;5093409;28;903;-44
2021/04/23 05:58:24;;;;;;;;;;;;;;;26.65;28.09;100934.91;5096347;28;819;-40
2021/04/23 06:00:50;;;;;;;;;;;;;;;26.80;27.61;100939.53;5096299;28;835;-24
2021/04/23 06:03:15;;;;;;;;;;;;;;;26.98;27.52;100943.81;5096190;28;935;-45
2021/04/23 06:05:40;;;;;;;;;;;;;;;27.25;27.08;100934.44;5096360;28;1906;-43
2021/04/23 06:08:07;;;;;;;;;;;;;;;27.31;26.94;100938.25;5096254;28;805;-35
2021/04/23 06:10:32;;;;;;;;;;;;;;;27.05;27.32;100925.09;5096349;28;798;-43
2021/04/23 06:12:57;;;;;;;;;;;;;;;27.00;27.34;100923.75;5111470;28;1111;-23
2021/04/23 06:15:23;;;;;;;;;;;;;;;27.14;27.31;100926.75;5116779;28;842;-24
2021/04/23 06:17:48;;;;;;;;;;;;;;;27.19;27.21;100937.00;5102388;28;934;-25
2021/04/23 06:20:15;;;;;;;;;;;;;;;27.36;27.02;100933.16;5100668;28;834;-24
2021/04/23 06:22:40;;;;;;;;;;;;;;;27.49;26.83;100931.72;5100302;28;906;-23
2021/04/23 06:25:06;;;;;;;;;;;;;;;27.84;26.26;100933.97;5100527;28;1979;-17
2021/04/23 06:27:32;;;;;;;;;;;;;;;27.40;26.87;100930.94;5100577;28;724;-48
2021/04/23 06:29:57;;;;;;;;;;;;;;;27.62;26.49;100931.94;5100062;28;772;-45
2021/04/23 06:32:22;;;;;;;;;;;;;;;27.34;27.10;100934.38;5099746;28;989;-43
2021/04/23 06:34:48;;;;;;;;;;;;;;;27.13;27.30;100942.09;5099989;28;794;-17
2021/04/23 06:37:13;;;;;;;;;;;;;;;26.99;27.71;100940.94;5100198;28;775;-17
2021/04/23 06:39:38;;;;;;;;;;;;;;;27.04;27.63;100939.63;5099912;28;730;-21
2021/04/23 06:42:03;;;;;;;;;;;;;;;26.76;28.19;100944.44;5099915;28;846;-16
2021/04/23 06:44:29;;;;;;;;;;;;;;;26.98;27.60;100943.81;5099898;28;1075;-24
2021/04/23 06:46:54;;;;;;;;;;;;;;;26.83;27.69;100946.44;5098530;28;1969;-43
2021/04/23 06:49:19;;;;;;;;;;;;;;;26.86;27.81;100952.31;5099466;28;815;-18
2021/04/23 06:51:45;;;;;;;;;;;;;;;27.36;27.13;100943.97;5098292;28;843;-39
2021/04/23 06:54:10;;;;;;;;;;;;;;;27.17;27.57;100941.72;5100094;28;822;-18
2021/04/23 06:56:36;;;;;;;;;;;;;;;26.83;28.10;100933.78;5099756;28;799;-17
2021/04/23 06:59:01;;;;;;;;;;;;;;;26.86;27.86;100929.91;5099959;28;866;-18
2021/04/23 07:01:26;;;;;;;;;;;;;;;27.29;27.35;100934.91;5097838;28;1281;-18
2021/04/23 07:03:51;;;;;;;;;;;;;;;27.02;27.57;100937.94;5099587;28;747;-17
2021/04/23 07:06:17;;;;;;;;;;;;;;;26.83;28.05;100941.03;5099815;28;1901;-17
2021/04/23 07:08:42;;;;;;;;;;;;;;;26.80;28.17;100944.09;5099696;28;839;-17
2021/04/23 07:11:07;;;;;;;;;;;;;;;27.26;27.65;100946.91;5099475;28;767;-17
2021/04/23 07:13:33;;;;;;;;;;;;;;;27.26;27.25;100948.75;5119539;28;1205;-17
2021/04/23 07:15:58;;;;;;;;;;;;;;;26.89;28.07;100964.66;5119888;28;838;-16
2021/04/23 07:18:23;;;;;;;;;;;;;;;26.70;28.24;100964.06;5099465;28;989;-18
2021/04/23 07:20:49;;;;;;;;;;;;;;;26.48;28.62;100974.56;5099413;28;735;-17
2021/04/23 07:23:15;;;;;;;;;;;;;;;26.71;28.20;100990.00;5098189;28;815;-18
2021/04/23 07:25:40;;;;;;;;;;;;;;;26.86;28.15;100983.91;5099188;28;1898;-16
2021/04/23 07:28:05;;;;;;;;;;;;;;;26.73;28.27;100970.94;5099341;28;783;-17
2021/04/23 07:30:31;;;;;;;;;;;;;;;26.74;28.23;100976.16;5098208;28;743;-17
2021/04/23 07:32:57;;;;;;;;;;;;;;;27.28;27.42;100983.72;5098687;28;1001;-43
2021/04/23 07:35:22;;;;;;;;;;;;;;;26.97;27.92;100982.66;5098746;28;769;-32
2021/04/23 07:37:48;;;;;;;;;;;;;;;26.73;27.91;100976.34;5098941;28;764;-19
2021/04/23 07:40:14;;;;;;;;;;;;;;;26.55;28.42;100999.00;5099246;28;775;-36
2021/04/23 07:42:40;;;;;;;;;;;;;;;26.58;28.48;100987.88;5098644;28;784;-18
2021/04/23 07:45:06;;;;;;;;;;;;;;;26.92;27.96;100976.94;5098303;28;1903;-16
2021/04/23 07:47:31;;;;;;;;;;;;;;;26.77;27.94;100980.38;5097146;28;1590;-28
2021/04/23 07:49:56;;;;;;;;;;;;;;;26.96;27.82;100973.69;5098711;28;798;-18
2021/04/23 07:52:21;;;;;;;;;;;;;;;26.65;28.42;100969.13;5098007;28;912;-49
2021/04/23 07:54:47;;;;;;;;;;;;;;;26.93;27.97;100970.50;5097132;28;816;-45
2021/04/23 07:57:12;;;;;;;;;;;;;;;26.98;28.00;100963.56;5098621;28;845;-18
2021/04/23 07:59:38;;;;;;;;;;;;;;;27.21;27.79;100967.38;5098112;28;902;-44
2021/04/23 08:02:04;;;;;;;;;;;;;;;27.09;27.90;100975.84;5098096;28;1005;-35
2021/04/23 08:04:29;;;;;;;;;;;;;;;27.34;27.35;100975.69;5098517;28;829;-44
2021/04/23 08:06:55;;;;;;;;;;;;;;;27.29;27.55;100975.44;5088744;28;1898;-29
2021/04/23 08:09:20;;;;;;;;;;;;;;;27.30;27.56;100977.09;5077516;28;736;-49
2021/04/23 08:11:45;;;;;;;;;;;;;;;27.03;28.28;100976.56;5087445;28;1193;-34
2021/04/23 08:14:11;;;;;;;;;;;;;;;27.39;27.18;100978.72;5099144;28;869;-39
2021/04/23 08:16:36;;;;;;;;;;;;;;;27.36;27.43;100987.19;5096430;28;926;-17
2021/04/23 08:19:01;;;;;;;;;;;;;;;27.30;27.52;100971.69;5097571;28;838;-17
2021/04/23 08:21:27;;;;;;;;;;;;;;;27.20;27.65;100981.88;5097998;28;751;-39
2021/04/23 08:23:52;;;;;;;;;;;;;;;27.50;27.06;100976.63;5097822;28;814;-48
2021/04/23 08:26:18;;;;;;;;;;;;;;;27.43;27.16;100983.75;5097854;28;1953;-49
2021/04/23 08:28:43;;;;;;;;;;;;;;;27.36;27.29;100981.78;5098467;28;728;-47
2021/04/23 08:31:08;;;;;;;;;;;;;;;26.78;28.36;100971.25;5098047;28;778;-48
2021/04/23 08:33:34;;;;;;;;;;;;;;;27.34;27.20;100972.19;5096100;28;1035;-44
2021/04/23 08:35:59;;;;;;;;;;;;;;;27.39;27.14;100973.31;5097774;28;747;-37
2021/04/23 08:38:25;;;;;;;;;;;;;;;27.32;27.23;100974.22;5097160;28;823;-16
2021/04/23 08:40:53;;;;;;;;;;;;;;;27.30;27.51;100978.94;5097835;28;731;-16
2021/04/23 08:43:19;;;;;;;;;;;;;;;27.19;27.99;100972.97;5098071;28;763;-42
2021/04/23 08:45:44;;;;;;;;;;;;;;;27.23;27.66;100973.41;5097139;28;2008;-16
2021/04/23 08:48:09;;;;;;;;;;;;;;;27.21;27.83;100976.28;5097466;28;930;-17
2021/04/23 08:50:34;;;;;;;;;;;;;;;27.16;28.00;100981.38;5097680;28;811;-17
2021/04/23 08:53:00;;;;;;;;;;;;;;;27.57;27.10;100982.16;5097413;28;771;-17
2021/04/23 08:55:25;;;;;;;;;;;;;;;27.29;27.72;100986.22;5078948;28;1210;-34
2021/04/23 08:57:51;;;;;;;;;;;;;;;27.14;27.78;100988.84;5096566;28;943;-42
2021/04/23 09:00:16;;;;;;;;;;;;;;;27.27;27.59;100996.38;5097104;28;755;-46
2021/04/23 09:02:42;;;;;;;;;;;;;;;27.55;27.13;100986.88;5096837;28;1010;-22
2021/04/23 09:05:08;;;;;;;;;;;;;;;27.30;27.61;100987.03;5097137;28;1962;-18
2021/04/23 09:07:33;;;;;;;;;;;;;;;27.08;27.50;100982.28;5097220;28;779;-46
2021/04/23 09:10:24;;;;;;;;;;;;;;;27.00;27.62;100979.59;5097197;28;763;-48
2021/04/23 09:13:22;;;;;;;;;;;;;;;27.58;27.00;100983.81;5108619;28;1825;-37
2021/04/23 09:15:47;;;;;;;;;;;;;;;27.37;27.30;100985.31;5094019;28;1379;-17
2021/04/23 09:18:13;;;;;;;;;;;;;;;27.20;27.93;100974.63;5098852;28;1005;-17
2021/04/23 09:20:39;;;;;;;;;;;;;;;27.29;27.79;100969.16;5097133;28;783;-19
2021/04/23 09:23:17;;;;;;;;;;;;;;;27.63;27.11;100966.03;5096960;28;784;-19
2021/04/23 09:25:44;;;;;;;;;;;;;;;27.31;27.43;100959.84;5096982;28;1898;-19
2021/04/23 09:28:10;;;;;;;;;;;;;;;27.08;27.75;100957.13;5097083;28;775;-43
2021/04/23 09:30:35;;;;;;;;;;;;;;;27.17;27.90;100964.19;5096580;28;807;-17
2021/04/23 09:33:01;;;;;;;;;;;;;;;27.55;27.05;100967.97;5096486;28;1001;-36
2021/04/23 09:35:26;;;;;;;;;;;;;;;27.32;27.52;100960.72;5095487;28;863;-16
2021/04/23 09:37:53;;;;;;;;;;;;;;;27.14;28.16;100964.53;5096966;28;799;-20
2021/04/23 09:40:28;;;;;;;;;;;;;;;27.06;28.17;100967.28;5081360;28;1310;-17
2021/04/23 09:43:00;;;;;;;;;;;;;;;27.54;27.57;100963.59;5076335;28;822;-18
2021/04/23 09:45:32;;;;;;;;;;;;;;;27.36;27.49;100967.44;5091930;28;1910;-18
2021/04/23 09:47:58;;;;;;;;;;;;;;;27.12;28.14;100959.31;5083710;28;2531;-42
2021/04/23 09:50:30;;;;;;;;;;;;;;;27.07;28.08;100955.47;5089132;28;2603;-38
2021/04/23 09:52:56;;;;;;;;;;;;;;;27.45;27.57;100950.16;5089706;28;2438;-15
2021/04/23 09:55:27;;;;;;;;;;;;;;;27.50;27.65;100958.56;5088913;28;2520;-16
2021/04/23 09:57:53;;;;;;;;;;;;;;;27.18;28.07;100960.44;5089874;28;2326;-39
2021/04/23 10:00:19;;;;;;;;;;;;;;;27.15;28.17;100966.22;5090015;28;2514;-26
2021/04/23 10:02:47;;;;;;;;;;;;;;;27.12;28.08;100963.88;5092985;28;2317;-39
2021/04/23 10:05:13;;;;;;;;;;;;;;;27.64;27.26;100972.31;5095933;28;1968;-40
2021/04/23 10:07:38;;;;;;;;;;;;;;;27.55;27.33;100970.66;5092173;28;2815;-28
2021/04/23 10:10:04;;;;;;;;;;;;;;;27.33;27.93;100974.03;5091743;28;2443;-25
2021/04/23 10:12:34;;;;;;;;;;;;;;;27.34;27.93;100978.41;5101756;28;903;-28
2021/04/23 10:15:00;;;;;;;;;;;;;;;26.45;27.92;100847.31;5116723;28;807;-42
2021/04/23 10:17:26;;;;;;;;;;;;;;;27.67;27.31;100990.84;5104258;28;1122;-28
2021/04/23 10:19:51;;;;;;;;;;;;;;;27.66;27.27;100986.44;5096054;28;834;-26
2021/04/23 10:22:16;;;;;;;;;;;;;;;27.49;27.71;100985.75;5096345;28;822;-42
2021/04/23 10:24:42;;;;;;;;;;;;;;;27.47;27.48;100982.38;5096141;28;787;-17
2021/04/23 10:27:07;;;;;;;;;;;;;;;27.52;27.46;100974.59;5096224;28;1905;-43
2021/04/23 10:29:32;;;;;;;;;;;;;;;27.70;27.46;100982.41;5096210;28;871;-16
2021/04/23 10:31:57;;;;;;;;;;;;;;;27.76;27.18;100986.22;5091318;28;999;-41
2021/04/23 10:34:23;;;;;;;;;;;;;;;27.48;27.21;100984.91;5075982;28;839;-38
2021/04/23 10:36:48;;;;;;;;;;;;;;;27.35;27.59;100984.66;5076490;28;783;-34
2021/04/23 10:39:13;;;;;;;;;;;;;;;27.34;27.85;100986.50;5076002;28;792;-17
2021/04/23 10:41:39;;;;;;;;;;;;;;;27.48;27.96;100989.47;5076323;28;811;-42
2021/04/23 10:44:04;;;;;;;;;;;;;;;27.80;27.28;100992.13;5075853;28;1075;-28
2021/04/23 10:46:30;;;;;;;;;;;;;;;27.68;27.06;100987.16;5083744;28;1914;-40
2021/04/23 10:49:02;;;;;;;;;;;;;;;27.49;27.47;100988.47;5096229;28;744;-16
2021/04/23 10:51:28;;;;;;;;;;;;;;;27.53;27.26;100988.94;5096019;28;763;-17
2021/04/23 10:53:54;;;;;;;;;;;;;;;27.68;27.30;100983.56;5095846;28;960;-17
2021/04/23 10:56:38;;;;;;;;;;;;;;;27.91;26.90;100986.28;5096389;28;743;-40
2021/04/23 10:59:05;;;;;;;;;;;;;;;27.56;27.13;100984.00;5095837;28;780;-25
2021/04/23 11:01:31;;;;;;;;;;;;;;;27.53;27.25;100980.84;5095436;28;907;-21
2021/04/23 11:04:04;;;;;;;;;;;;;;;27.46;27.44;100980.72;5096400;28;775;-38
2021/04/23 11:06:39;;;;;;;;;;;;;;;27.38;27.44;100973.50;5099235;28;1897;-42
2021/04/23 11:09:05;;;;;;;;;;;;;;;27.60;27.40;100979.94;5099657;28;803;-16
2021/04/23 11:11:31;;;;;;;;;;;;;;;27.92;26.95;100977.16;5102412;28;1079;-36
2021/04/23 11:14:15;;;;;;;;;;;;;;;27.69;27.24;100978.03;5120055;28;854;-16
2021/04/23 11:16:40;;;;;;;;;;;;;;;27.66;27.21;100975.66;5113873;28;972;-20
2021/04/23 11:19:17;;;;;;;;;;;;;;;27.59;27.33;100967.41;5099483;28;821;-16
2021/04/23 11:21:43;;;;;;;;;;;;;;;27.35;27.77;100963.91;5099379;28;870;-39
2021/04/23 11:24:08;;;;;;;;;;;;;;;27.72;27.19;100963.31;5099439;28;807;-16
2021/04/23 11:26:52;;;;;;;;;;;;;;;27.62;27.31;100958.97;5099852;28;1902;-18
2021/04/23 11:29:17;;;;;;;;;;;;;;;27.71;27.05;100959.75;5099300;28;751;-41
2021/04/23 11:32:01;;;;;;;;;;;;;;;27.71;27.07;100965.16;5098830;28;990;-15
2021/04/23 11:34:30;;;;;;;;;;;;;;;27.54;27.54;100963.59;5099094;28;739;-16
2021/04/23 11:36:59;;;;;;;;;;;;;;;27.86;26.96;100969.78;5099274;28;771;-16
2021/04/23 11:39:28;;;;;;;;;;;;;;;27.75;27.33;100963.78;5098900;28;856;-17
2021/04/23 11:42:08;;;;;;;;;;;;;;;27.79;27.19;100966.13;5098846;28;818;-17
2021/04/23 11:44:40;;;;;;;;;;;;;;;27.76;27.04;100959.19;5098740;28;1102;-16
2021/04/23 11:47:06;;;;;;;;;;;;;;;27.68;27.18;100970.94;5097417;28;1964;-16
2021/04/23 11:49:32;;;;;;;;;;;;;;;27.56;27.27;100965.09;5099084;28;770;-33
2021/04/23 11:52:01;;;;;;;;;;;;;;;27.84;27.10;100967.25;5098929;28;751;-24
2021/04/23 11:54:30;;;;;;;;;;;;;;;27.72;27.29;100961.47;5097964;28;759;-18
2021/04/23 11:56:55;;;;;;;;;;;;;;;27.57;27.18;100963.22;5098728;28;832;-16
2021/04/23 11:59:20;;;;;;;;;;;;;;;27.40;27.35;100971.44;5098831;28;773;-39
2021/04/23 12:01:45;;;;;;;;;;;;;;;27.42;27.55;100971.28;5098183;28;1014;-16
2021/04/23 12:04:11;;;;;;;;;;;;;;;27.56;27.45;100970.47;5098917;28;791;-38
2021/04/23 12:06:36;;;;;;;;;;;;;;;27.70;27.13;100965.34;5098623;28;1898;-40
2021/04/23 12:09:01;;;;;;;;;;;;;;;27.52;27.24;100971.88;5098630;28;870;-22
2021/04/23 12:11:27;;;;;;;;;;;;;;;27.49;27.53;100966.84;5100556;28;1190;-17
2021/04/23 12:13:52;;;;;;;;;;;;;;;27.38;27.75;100965.38;5118957;28;771;-16
2021/04/23 12:16:17;;;;;;;;;;;;;;;27.89;27.02;100974.81;5115810;28;996;-17
2021/04/23 12:18:43;;;;;;;;;;;;;;;27.58;27.36;100970.31;5094952;28;954;-42
2021/04/23 12:21:09;;;;;;;;;;;;;;;27.39;27.56;100970.59;5097689;28;828;-40
2021/04/23 12:23:34;;;;;;;;;;;;;;;27.26;27.63;100975.75;5097026;28;867;-41
2021/04/23 12:26:00;;;;;;;;;;;;;;;27.48;27.59;100976.81;5097424;28;1960;-35
2021/04/23 12:28:38;;;;;;;;;;;;;;;27.72;27.05;100983.09;5097825;28;804;-32
2021/04/23 12:31:18;;;;;;;;;;;;;;;27.49;27.17;100983.88;5098035;28;807;-17
2021/04/23 12:33:47;;;;;;;;;;;;;;;27.35;27.51;100982.81;5077763;28;835;-42
2021/04/23 12:36:32;;;;;;;;;;;;;;;27.39;27.64;100978.72;5077878;28;826;-36
2021/04/23 12:39:01;;;;;;;;;;;;;;;27.67;27.06;100988.16;5076871;28;1987;-23
2021/04/23 12:41:26;;;;;;;;;;;;;;;27.30;27.72;100982.50;5077696;28;743;-42
2021/04/23 12:43:52;;;;;;;;;;;;;;;27.24;27.57;100980.53;5077994;28;1072;-18
2021/04/23 12:46:18;;;;;;;;;;;;;;;27.23;27.81;100987.78;5083098;28;1909;-19
2021/04/23 12:48:44;;;;;;;;;;;;;;;27.61;27.44;100983.47;5098099;28;840;-16
2021/04/23 12:51:09;;;;;;;;;;;;;;;27.56;27.51;100981.28;5097267;28;890;-43